Time;durP1;ratioP1;P1;durP2;ratioP2;P2;SDS_P1;SDS_P2;PMS_P1;PMS_P2;Temp;Humidity;BMP_temperature;BMP_pressure;BME280_temperature;BME280_humidity;BME280_pressure;Samples;Min_cycle;Max_cycle;Signal;HPM_P1;HPM_P2
2022/01/20 00:00:31;;;;;;;3.63;1.02;;;14.30;50.70;;;;;;5118192;27;20045;-69
2022/01/20 00:03:00;;;;;;;3.72;1.13;;;14.30;50.80;;;;;;5118113;27;20039;-68
2022/01/20 00:08:32;;;;;;;3.38;0.90;;;14.30;50.80;;;;;;5135937;27;20038;-70
2022/01/20 00:27:37;;;;;;;3.65;1.00;;;14.30;50.80;;;;;;5115404;28;20035;-69
2022/01/20 00:33:00;;;;;;;3.63;0.95;;;14.30;50.80;;;;;;5115108;28;20039;-63
2022/01/20 00:35:30;;;;;;;4.47;0.80;;;14.30;50.80;;;;;;5115109;28;20092;-70
2022/01/20 00:37:56;;;;;;;3.58;0.90;;;14.20;50.70;;;;;;5097488;28;20421;-69
2022/01/20 00:40:23;;;;;;;4.10;0.60;;;14.30;50.80;;;;;;5115095;28;20110;-69
2022/01/20 00:42:52;;;;;;;3.55;0.93;;;14.20;50.80;;;;;;5096703;28;20527;-69
2022/01/20 00:45:18;;;;;;;4.65;0.93;;;14.20;50.80;;;;;;5096967;28;20027;-70
2022/01/20 00:47:44;;;;;;;4.97;1.45;;;14.20;50.70;;;;;;5114789;28;20527;-70
2022/01/20 00:50:11;;;;;;;3.75;0.85;;;14.20;50.70;;;;;;5096435;28;20077;-70
2022/01/20 00:52:37;;;;;;;4.10;0.73;;;14.20;50.70;;;;;;5114801;28;20467;-69
2022/01/20 00:55:04;;;;;;;4.00;0.98;;;14.20;50.70;;;;;;5114901;28;20050;-69
2022/01/20 00:57:30;;;;;;;4.40;0.73;;;14.20;50.80;;;;;;5096661;28;20043;-70
2022/01/20 00:59:56;;;;;;;6.30;0.90;;;14.20;50.80;;;;;;5096533;28;20035;-69
2022/01/20 01:02:22;;;;;;;3.42;1.40;;;14.20;50.80;;;;;;5096563;28;20036;-70
2022/01/20 01:04:47;;;;;;;3.90;0.90;;;14.20;50.90;;;;;;5096606;28;20047;-69
2022/01/20 01:09:56;;;;;;;4.70;0.73;;;14.20;51.40;;;;;;5130249;27;20495;-69
2022/01/20 01:12:33;;;;;;;2.83;0.60;;;14.30;51.00;;;;;;5130248;28;20484;-69
2022/01/20 01:15:01;;;;;;;3.30;0.63;;;14.40;50.80;;;;;;5129238;28;20049;-64
2022/01/20 01:20:15;;;;;;;3.13;0.90;;;14.70;50.50;;;;;;5130347;27;20358;-64
2022/01/20 01:22:41;;;;;;;1.92;0.57;;;14.90;50.10;;;;;;5129113;28;20478;-68
2022/01/20 01:25:08;;;;;;;3.83;1.00;;;15.10;49.70;;;;;;5129034;27;20053;-64
2022/01/20 01:27:38;;;;;;;4.03;0.70;;;15.40;49.30;;;;;;5130293;27;20114;-64
2022/01/20 01:30:11;;;;;;;2.80;0.80;;;15.70;48.90;;;;;;5129233;28;20512;-63
2022/01/20 01:32:47;;;;;;;3.47;0.82;;;16.00;48.40;;;;;;5130105;27;20049;-68
2022/01/20 01:35:14;;;;;;;3.30;0.68;;;16.30;47.90;;;;;;5130276;27;20197;-64
2022/01/20 01:40:18;;;;;;;2.77;0.63;;;16.80;47.00;;;;;;5153339;27;1152697;-64
2022/01/20 01:42:47;;;;;;;3.78;0.55;;;17.00;46.60;;;;;;5153235;27;20739;-69
2022/01/20 01:45:17;;;;;;;3.40;0.55;;;17.20;46.30;;;;;;5153460;27;20065;-64
2022/01/20 01:47:45;;;;;;;2.53;0.40;;;17.30;45.90;;;;;;5153365;27;20490;-69
2022/01/20 01:50:11;;;;;;;2.50;0.50;;;17.50;45.70;;;;;;5153535;27;20091;-70
2022/01/20 01:52:37;;;;;;;3.40;0.60;;;17.60;45.40;;;;;;5153329;27;20044;-71
2022/01/20 01:55:04;;;;;;;1.65;0.40;;;17.70;45.20;;;;;;5153190;27;20376;-69
2022/01/20 01:57:29;;;;;;;1.50;0.45;;;17.70;44.90;;;;;;5171451;27;20029;-70
2022/01/20 01:59:56;;;;;;;3.50;0.60;;;17.80;44.80;;;;;;5152774;27;20465;-70
2022/01/20 02:02:24;;;;;;;3.00;0.40;;;17.80;44.60;;;;;;5171409;27;20045;-70
2022/01/20 02:04:51;;;;;;;2.55;0.35;;;17.80;44.40;;;;;;5153073;27;20065;-69
2022/01/20 02:21:04;;;;;;;1.45;0.30;;;17.60;44.30;;;;;;5130371;27;20738;-68
2022/01/20 02:23:30;;;;;;;2.13;0.30;;;17.50;44.00;;;;;;5128942;28;20035;-68
2022/01/20 02:25:56;;;;;;;2.58;0.68;;;17.50;44.10;;;;;;5128972;28;20046;-69
2022/01/20 02:28:25;;;;;;;1.50;0.20;;;17.40;44.10;;;;;;5130225;27;20050;-63
2022/01/20 02:30:51;;;;;;;2.55;0.50;;;17.40;44.10;;;;;;5128965;28;20079;-63
2022/01/20 02:33:19;;;;;;;1.85;0.50;;;17.40;44.20;;;;;;5128755;28;20071;-68
2022/01/20 02:35:48;;;;;;;2.67;0.50;;;17.20;44.20;;;;;;5129080;28;20058;-68
2022/01/20 02:38:21;;;;;;;1.95;0.30;;;17.20;44.30;;;;;;5129962;27;20067;-69
2022/01/20 02:46:21;;;;;;;2.72;0.68;;;17.20;44.50;;;;;;5128705;28;20050;-69
2022/01/20 02:48:47;;;;;;;2.70;0.40;;;17.20;44.50;;;;;;5128443;27;20035;-69
2022/01/20 02:51:13;;;;;;;2.55;0.65;;;17.20;44.40;;;;;;5128754;28;20115;-69
2022/01/20 02:53:38;;;;;;;2.47;0.35;;;17.30;44.40;;;;;;5129698;28;20412;-68
2022/01/20 02:56:04;;;;;;;2.00;0.45;;;17.30;44.40;;;;;;5129728;28;20057;-69
2022/01/20 02:58:30;;;;;;;1.83;0.22;;;17.40;44.30;;;;;;5128288;28;20035;-69
2022/01/20 03:00:59;;;;;;;1.77;0.20;;;17.40;44.10;;;;;;5129424;27;20054;-69
2022/01/20 03:03:25;;;;;;;2.92;0.30;;;17.50;44.00;;;;;;5128534;28;20039;-69
2022/01/20 03:05:51;;;;;;;2.20;0.30;;;17.50;44.00;;;;;;5128211;28;20467;-69
2022/01/20 03:08:17;;;;;;;1.08;0.30;;;17.50;43.90;;;;;;5129472;28;20031;-70
2022/01/20 03:10:42;;;;;;;1.45;0.22;;;17.60;43.90;;;;;;5127981;28;20046;-69
2022/01/20 03:13:08;;;;;;;2.00;0.25;;;17.50;43.80;;;;;;5127944;28;20065;-64
2022/01/20 03:15:35;;;;;;;1.48;0.20;;;17.50;44.50;;;;;;5129596;28;20051;-69
2022/01/20 03:18:02;;;;;;;2.58;0.75;;;17.50;43.70;;;;;;5127854;28;20395;-69
2022/01/20 03:20:28;;;;;;;2.35;0.20;;;17.50;43.70;;;;;;5127487;28;20052;-70
2022/01/20 03:22:54;;;;;;;1.80;0.30;;;17.50;43.70;;;;;;5127893;28;20116;-68
2022/01/20 03:25:19;;;;;;;2.13;0.20;;;17.50;43.60;;;;;;5129095;28;20070;-64
2022/01/20 03:27:45;;;;;;;1.58;0.20;;;17.50;43.60;;;;;;5127938;28;20035;-67
2022/01/20 03:30:12;;;;;;;3.83;0.40;;;17.50;43.60;;;;;;5126910;28;20138;-65
2022/01/20 03:32:37;;;;;;;1.30;0.40;;;17.40;43.60;;;;;;5115075;28;20031;-65
2022/01/20 03:35:06;;;;;;;1.42;0.35;;;17.40;43.60;;;;;;5113979;28;20042;-64
2022/01/20 03:37:33;;;;;;;3.42;0.30;;;17.40;43.60;;;;;;5114195;28;20031;-70
2022/01/20 03:40:02;;;;;;;3.47;0.40;;;17.40;43.60;;;;;;5113897;28;20051;-65
2022/01/20 03:42:28;;;;;;;2.35;0.32;;;17.40;43.60;;;;;;5114969;28;20036;-70
2022/01/20 03:44:53;;;;;;;1.58;0.30;;;17.30;43.70;;;;;;5114174;28;20085;-64
2022/01/20 03:47:22;;;;;;;1.80;0.30;;;17.30;43.70;;;;;;5114000;28;20643;-70
2022/01/20 03:50:08;;;;;;;1.50;0.30;;;17.30;43.70;;;;;;5113764;28;20068;-70
2022/01/20 03:52:37;;;;;;;1.55;0.28;;;17.30;43.70;;;;;;5115034;28;20108;-70
2022/01/20 03:55:03;;;;;;;1.55;0.30;;;17.30;43.70;;;;;;5114900;28;20039;-70
2022/01/20 03:57:29;;;;;;;1.42;0.20;;;17.30;43.70;;;;;;5115096;28;20332;-70
2022/01/20 03:59:54;;;;;;;1.60;0.22;;;17.30;43.70;;;;;;5113621;28;20039;-71
2022/01/20 04:02:20;;;;;;;2.05;0.25;;;17.20;43.60;;;;;;5114728;28;20508;-70
2022/01/20 04:04:46;;;;;;;2.33;0.32;;;17.30;43.70;;;;;;5113717;28;20039;-70
2022/01/20 04:07:14;;;;;;;1.27;0.20;;;17.30;44.40;;;;;;5113631;28;20035;-71
2022/01/20 04:09:40;;;;;;;2.35;0.30;;;17.30;43.60;;;;;;5114577;28;20036;-69
2022/01/20 04:12:07;;;;;;;1.90;0.20;;;17.30;43.50;;;;;;5114791;28;20366;-70
2022/01/20 04:14:34;;;;;;;2.05;0.20;;;17.40;43.50;;;;;;5114498;28;20527;-70
2022/01/20 04:17:03;;;;;;;2.42;0.60;;;17.40;43.40;;;;;;5114854;28;20103;-71
2022/01/20 04:19:32;;;;;;;1.95;0.40;;;17.40;43.30;;;;;;5114472;28;20055;-70
2022/01/20 04:22:01;;;;;;;1.73;0.20;;;17.40;43.30;;;;;;5113164;28;20455;-70
2022/01/20 04:24:28;;;;;;;2.47;0.40;;;17.40;43.10;;;;;;5114359;28;20039;-70
2022/01/20 04:26:53;;;;;;;2.30;0.40;;;17.40;43.20;;;;;;5114512;28;20038;-71
2022/01/20 04:29:19;;;;;;;3.00;0.77;;;17.40;43.20;;;;;;5114271;28;20465;-71
2022/01/20 04:31:46;;;;;;;1.88;0.55;;;17.30;43.20;;;;;;5114198;28;20050;-71
2022/01/20 04:34:12;;;;;;;2.97;0.30;;;17.40;43.00;;;;;;5114116;28;20525;-64
2022/01/20 04:36:42;;;;;;;2.95;0.50;;;17.30;43.00;;;;;;5113116;28;20031;-70
2022/01/20 04:39:12;;;;;;;2.92;0.50;;;17.30;42.90;;;;;;5113887;28;20044;-71
2022/01/20 04:41:37;;;;;;;3.13;0.52;;;17.30;42.90;;;;;;5113055;28;20419;-70
2022/01/20 04:44:09;;;;;;;2.28;0.30;;;17.20;42.90;;;;;;5113249;28;20592;-70
2022/01/20 04:46:45;;;;;;;2.70;0.30;;;17.30;43.00;;;;;;5112683;28;20475;-70
2022/01/20 04:57:24;;;;;;;3.03;0.57;;;17.20;42.70;;;;;;5087961;28;20523;-71
2022/01/20 04:59:52;;;;;;;3.83;0.68;;;17.20;42.70;;;;;;5088050;28;20123;-70
2022/01/20 05:02:17;;;;;;;4.65;0.57;;;17.10;42.70;;;;;;5088032;28;20051;-71
2022/01/20 05:04:44;;;;;;;5.35;0.57;;;17.10;42.70;;;;;;5087996;28;20044;-70
2022/01/20 05:07:17;;;;;;;2.72;0.52;;;17.10;42.60;;;;;;5089292;28;20513;-71
2022/01/20 05:09:43;;;;;;;4.50;0.47;;;17.00;42.60;;;;;;5089104;28;20037;-70
2022/01/20 05:12:15;;;;;;;3.42;0.50;;;17.00;42.60;;;;;;5087865;28;20494;-71
2022/01/20 05:14:41;;;;;;;2.67;0.30;;;17.00;42.60;;;;;;5087669;28;20087;-70
2022/01/20 05:17:07;;;;;;;3.35;0.85;;;17.00;42.60;;;;;;5088021;28;20072;-70
2022/01/20 05:19:33;;;;;;;4.00;0.38;;;17.00;42.60;;;;;;5087757;28;20036;-71
2022/01/20 05:22:00;;;;;;;3.63;0.45;;;17.00;42.60;;;;;;5087980;28;20093;-71
2022/01/20 05:24:26;;;;;;;2.60;0.50;;;17.00;42.60;;;;;;5088881;28;20062;-70
2022/01/20 05:26:54;;;;;;;2.08;0.60;;;17.00;42.50;;;;;;5087609;28;20085;-71
2022/01/20 05:29:20;;;;;;;3.63;0.70;;;17.00;42.50;;;;;;5087531;28;20468;-71
2022/01/20 05:31:46;;;;;;;4.22;0.60;;;17.00;42.40;;;;;;5088658;28;20044;-69
2022/01/20 05:34:18;;;;;;;4.63;0.70;;;17.00;42.30;;;;;;5088690;28;20040;-70
2022/01/20 05:36:47;;;;;;;4.30;0.80;;;16.90;42.10;;;;;;5087639;28;20106;-70
2022/01/20 05:39:12;;;;;;;4.55;0.60;;;16.90;42.20;;;;;;5088688;28;20032;-70
2022/01/20 05:41:38;;;;;;;4.57;0.47;;;17.00;42.20;;;;;;5087400;28;20486;-70
2022/01/20 05:44:04;;;;;;;3.22;0.73;;;16.90;42.00;;;;;;5087637;28;20039;-70
2022/01/20 05:46:39;;;;;;;4.25;0.47;;;16.90;42.00;;;;;;5087051;28;20040;-70
2022/01/20 05:49:09;;;;;;;3.83;1.02;;;16.90;42.00;;;;;;5087275;28;20040;-70
2022/01/20 05:51:36;;;;;;;4.72;0.60;;;16.90;42.00;;;;;;5086842;28;20142;-67
2022/01/20 05:54:02;;;;;;;4.65;0.52;;;16.90;41.90;;;;;;5087352;28;20113;-70
2022/01/20 05:56:28;;;;;;;3.40;0.47;;;16.90;42.00;;;;;;5088305;28;20429;-70
2022/01/20 05:58:53;;;;;;;4.45;0.60;;;16.80;41.90;;;;;;5086955;28;20123;-70
2022/01/20 06:01:22;;;;;;;5.28;1.27;;;16.90;41.80;;;;;;5084076;28;20066;-69
2022/01/20 06:03:47;;;;;;;2.58;0.65;;;16.80;41.80;;;;;;5073550;28;20109;-70
2022/01/20 06:06:13;;;;;;;3.13;0.50;;;16.80;41.80;;;;;;5074837;28;20063;-65
2022/01/20 06:08:41;;;;;;;1.63;0.28;;;16.80;41.80;;;;;;5073377;28;20033;-64
2022/01/20 06:11:08;;;;;;;3.25;0.57;;;16.80;41.80;;;;;;5073142;28;20051;-65
2022/01/20 06:13:33;;;;;;;3.78;0.57;;;16.70;41.90;;;;;;5073241;28;20036;-69
2022/01/20 06:16:00;;;;;;;3.00;0.82;;;16.70;41.90;;;;;;5074547;28;20102;-67
2022/01/20 06:18:26;;;;;;;2.50;0.40;;;16.70;41.90;;;;;;5073206;28;20047;-65
2022/01/20 06:20:52;;;;;;;3.13;0.68;;;16.70;41.90;;;;;;5073368;28;20127;-65
2022/01/20 06:23:18;;;;;;;3.90;0.50;;;16.70;42.00;;;;;;5073372;28;20040;-68
2022/01/20 06:25:44;;;;;;;4.32;0.65;;;16.70;42.00;;;;;;5074199;28;20076;-70
2022/01/20 06:28:11;;;;;;;4.00;0.63;;;16.60;42.00;;;;;;5073280;28;20123;-73
2022/01/20 06:30:37;;;;;;;3.42;0.95;;;16.60;42.00;;;;;;5072132;28;20074;-68
2022/01/20 06:33:03;;;;;;;2.92;0.60;;;16.60;42.10;;;;;;5073904;28;20036;-68
2022/01/20 06:35:31;;;;;;;1.77;0.30;;;16.60;42.10;;;;;;5072955;28;20060;-67
2022/01/20 06:37:56;;;;;;;1.80;0.30;;;16.50;42.10;;;;;;5072643;28;20119;-67
2022/01/20 06:40:22;;;;;;;4.38;0.70;;;16.50;42.20;;;;;;5070550;28;20131;-67
2022/01/20 06:42:48;;;;;;;3.80;0.70;;;16.50;42.40;;;;;;5070705;28;20170;-69
2022/01/20 06:45:16;;;;;;;3.45;0.68;;;16.60;42.50;;;;;;5072070;28;20029;-68
2022/01/20 06:47:41;;;;;;;4.35;1.27;;;16.60;42.50;;;;;;5071559;28;20040;-67
2022/01/20 06:50:09;;;;;;;2.80;0.40;;;16.70;42.60;;;;;;5070136;28;20090;-68
2022/01/20 06:52:36;;;;;;;2.75;0.40;;;16.60;42.50;;;;;;5050630;28;20052;-69
2022/01/20 06:55:05;;;;;;;3.22;0.70;;;16.70;42.50;;;;;;5050813;28;20040;-69
2022/01/20 06:57:32;;;;;;;2.38;0.75;;;16.70;42.50;;;;;;5050864;28;20389;-69
2022/01/20 06:59:58;;;;;;;2.72;0.60;;;16.70;42.40;;;;;;5061160;28;20682;-68
2022/01/20 07:02:24;;;;;;;2.22;0.65;;;16.60;42.40;;;;;;5066565;28;20093;-70
2022/01/20 07:04:50;;;;;;;6.47;0.63;;;16.60;42.40;;;;;;5065231;28;20124;-67
2022/01/20 07:07:17;;;;;;;4.03;0.80;;;16.60;42.40;;;;;;5053703;28;20101;-68
2022/01/20 07:09:44;;;;;;;3.40;0.63;;;16.60;42.50;;;;;;5050917;28;20033;-65
2022/01/20 07:12:10;;;;;;;5.63;0.52;;;16.60;42.60;;;;;;5060006;28;20045;-67
2022/01/20 07:14:37;;;;;;;2.53;0.50;;;16.60;42.60;;;;;;5052942;28;20044;-67
2022/01/20 07:17:03;;;;;;;3.92;0.95;;;16.60;42.30;;;;;;5058373;28;20040;-68
2022/01/20 07:19:29;;;;;;;3.22;0.45;;;16.60;42.30;;;;;;5062396;28;20380;-67
2022/01/20 07:21:54;;;;;;;4.80;0.88;;;16.60;42.30;;;;;;5063516;28;20044;-68
2022/01/20 07:24:20;;;;;;;4.97;1.17;;;16.50;42.40;;;;;;5061540;28;20025;-67
2022/01/20 07:26:46;;;;;;;3.35;0.45;;;16.50;42.30;;;;;;5063320;28;20040;-68
2022/01/20 07:29:12;;;;;;;5.38;0.80;;;16.50;42.60;;;;;;5065123;28;20042;-70
2022/01/20 07:31:37;;;;;;;4.15;0.70;;;16.50;43.10;;;;;;5063684;28;20067;-69
2022/01/20 07:34:03;;;;;;;7.10;1.40;;;16.50;42.80;;;;;;5065782;28;20519;-70
2022/01/20 07:36:29;;;;;;;5.95;1.38;;;16.50;42.10;;;;;;5065707;28;20864;-69
2022/01/20 07:38:54;;;;;;;6.95;1.15;;;16.40;41.30;;;;;;5053505;28;20075;-69
2022/01/20 07:41:20;;;;;;;2.85;0.88;;;16.40;40.70;;;;;;5054093;28;20124;-72
2022/01/20 07:43:46;;;;;;;3.28;0.88;;;16.40;40.50;;;;;;5047972;28;20049;-70
2022/01/20 07:46:11;;;;;;;6.90;0.63;;;16.40;40.20;;;;;;5064595;28;20044;-71
2022/01/20 07:48:40;;;;;;;5.97;0.93;;;16.40;39.80;;;;;;5050061;28;20051;-69
2022/01/20 07:51:06;;;;;;;6.97;1.55;;;16.40;39.90;;;;;;5050966;28;20170;-72
2022/01/20 07:53:33;;;;;;;6.38;1.25;;;16.60;40.10;;;;;;5045692;28;20843;-68
2022/01/20 07:56:00;;;;;;;7.35;1.25;;;16.70;40.30;;;;;;5063619;28;20044;-63
2022/01/20 07:58:25;;;;;;;6.22;0.60;;;16.90;40.50;;;;;;5048901;28;20568;-69
2022/01/20 08:00:51;;;;;;;4.38;0.73;;;17.00;40.50;;;;;;5048077;28;20036;-70
2022/01/20 08:03:17;;;;;;;7.22;0.73;;;17.20;40.40;;;;;;5051640;28;20040;-65
2022/01/20 08:05:42;;;;;;;6.05;1.15;;;17.40;40.20;;;;;;5054807;28;20093;-68
2022/01/20 08:08:08;;;;;;;9.63;0.85;;;17.70;40.30;;;;;;5053601;28;20044;-73
2022/01/20 08:10:35;;;;;;;4.85;0.70;;;17.80;40.20;;;;;;5067196;28;20121;-74
2022/01/20 08:13:02;;;;;;;4.22;0.73;;;17.90;40.10;;;;;;5051965;28;20060;-66
2022/01/20 08:15:28;;;;;;;4.07;0.70;;;18.00;40.20;;;;;;5053513;28;20079;-65
2022/01/20 08:17:54;;;;;;;3.13;0.50;;;18.00;40.10;;;;;;5052209;28;20072;-72
2022/01/20 08:20:20;;;;;;;4.10;0.60;;;18.10;40.20;;;;;;5051201;28;20466;-71
2022/01/20 08:22:45;;;;;;;6.90;0.50;;;18.00;40.30;;;;;;5051493;28;20048;-71
2022/01/20 08:25:14;;;;;;;6.10;0.60;;;18.00;40.50;;;;;;5047976;28;20061;-72
2022/01/20 08:27:45;;;;;;;3.25;0.45;;;18.00;40.60;;;;;;5063984;28;20536;-71
2022/01/20 08:30:15;;;;;;;5.13;0.52;;;18.00;40.70;;;;;;5060547;28;20136;-71
2022/01/20 08:32:41;;;;;;;3.38;0.63;;;17.90;40.90;;;;;;5065682;28;20056;-72
2022/01/20 08:35:09;;;;;;;2.88;0.43;;;17.90;41.10;;;;;;5051304;28;20029;-74
2022/01/20 08:37:40;;;;;;;5.75;1.15;;;17.90;41.00;;;;;;5059601;28;20071;-71
2022/01/20 08:40:14;;;;;;;2.90;0.50;;;17.80;41.10;;;;;;5056034;28;20068;-76
2022/01/20 08:42:42;;;;;;;4.35;0.70;;;17.60;41.20;;;;;;5060397;28;20503;-72
2022/01/20 08:45:09;;;;;;;3.60;0.75;;;17.60;41.60;;;;;;5051540;28;20076;-69
2022/01/20 08:47:35;;;;;;;3.13;0.57;;;17.40;41.70;;;;;;5050543;28;20072;-69
2022/01/20 08:50:05;;;;;;;3.38;0.70;;;17.30;42.10;;;;;;5048677;28;20067;-73
2022/01/20 08:52:31;;;;;;;3.05;0.50;;;17.30;42.40;;;;;;5048137;28;20056;-71
2022/01/20 08:54:58;;;;;;;4.03;0.60;;;17.20;42.60;;;;;;5064819;28;20048;-72
2022/01/20 08:57:25;;;;;;;2.45;0.50;;;17.10;42.90;;;;;;5048576;28;20045;-73
2022/01/20 08:59:51;;;;;;;6.07;0.70;;;17.00;43.00;;;;;;5048114;28;20776;-68
2022/01/20 09:02:20;;;;;;;3.08;0.63;;;17.00;43.10;;;;;;5049222;28;20622;-71
2022/01/20 09:04:46;;;;;;;2.38;0.38;;;17.00;43.30;;;;;;5047701;28;20091;-71
2022/01/20 09:07:12;;;;;;;2.60;0.50;;;16.90;43.40;;;;;;5046670;28;20120;-71
2022/01/20 09:09:42;;;;;;;4.30;0.82;;;16.90;43.50;;;;;;5047554;28;20024;-68
2022/01/20 09:17:36;;;;;;;3.97;0.40;;;16.90;44.10;;;;;;5092235;28;20422;-74
2022/01/20 09:20:03;;;;;;;4.60;0.43;;;16.90;43.70;;;;;;5092537;28;20040;-64
2022/01/20 09:22:30;;;;;;;8.88;1.00;;;17.00;43.90;;;;;;5094011;28;20131;-72
2022/01/20 09:25:01;;;;;;;3.97;0.60;;;17.10;43.90;;;;;;5081789;28;20051;-72
2022/01/20 09:27:27;;;;;;;4.65;0.65;;;17.30;43.90;;;;;;5092024;28;20664;-65
2022/01/20 09:29:55;;;;;;;5.32;0.98;;;17.60;43.40;;;;;;5082336;28;20044;-70
2022/01/20 09:32:23;;;;;;;4.75;0.60;;;17.90;42.30;;;;;;5084535;28;20632;-71
2022/01/20 09:34:49;;;;;;;9.30;1.00;;;18.10;40.30;;;;;;5083513;28;20046;-72
2022/01/20 09:37:15;;;;;;;6.32;0.75;;;18.30;39.80;;;;;;5081051;28;20032;-73
2022/01/20 09:39:40;;;;;;;5.32;0.68;;;18.50;39.50;;;;;;5084440;28;20487;-70
2022/01/20 09:42:07;;;;;;;4.65;0.75;;;18.70;39.30;;;;;;5094908;28;20036;-76
2022/01/20 09:44:33;;;;;;;5.97;1.02;;;18.80;39.10;;;;;;5085699;28;20041;-72
2022/01/20 09:46:59;;;;;;;8.00;1.33;;;18.90;38.80;;;;;;5090304;28;20051;-68
2022/01/20 09:49:25;;;;;;;5.97;0.70;;;19.20;38.60;;;;;;5088200;28;20399;-72
2022/01/20 09:51:53;;;;;;;3.63;0.60;;;19.30;38.50;;;;;;5089344;28;20044;-69
2022/01/20 09:54:19;;;;;;;4.18;0.77;;;19.50;38.30;;;;;;5086719;28;20097;-70
2022/01/20 09:56:45;;;;;;;3.83;0.50;;;19.80;38.20;;;;;;5086689;28;20387;-71
2022/01/20 09:59:12;;;;;;;5.18;0.65;;;20.00;37.90;;;;;;5093315;28;20036;-72
2022/01/20 10:01:45;;;;;;;7.20;0.85;;;20.20;37.70;;;;;;5087613;28;20127;-75
2022/01/20 10:04:31;;;;;;;4.25;0.70;;;20.30;36.90;;;;;;5086655;28;20127;-74
2022/01/20 10:09:41;;;;;;;3.90;0.85;;;20.40;37.00;;;;;;5068878;27;20887;-69
2022/01/20 10:12:09;;;;;;;5.82;1.10;;;20.60;37.10;;;;;;5064298;28;20079;-67
2022/01/20 10:14:45;;;;;;;3.53;0.75;;;20.80;37.20;;;;;;5067799;28;20056;-67
2022/01/20 10:20:04;;;;;;;3.92;0.63;;;20.90;37.30;;;;;;5094630;27;20345;-66
2022/01/20 10:22:31;;;;;;;5.90;0.73;;;21.20;37.50;;;;;;5092499;28;20052;-67
2022/01/20 10:25:02;;;;;;;4.05;0.80;;;21.30;37.50;;;;;;5076353;28;20044;-68
2022/01/20 10:27:33;;;;;;;7.47;0.65;;;21.40;37.50;;;;;;5072987;28;20055;-69
2022/01/20 10:30:05;;;;;;;3.90;0.75;;;21.50;37.50;;;;;;5065486;28;20048;-69
2022/01/20 10:32:48;;;;;;;5.97;1.00;;;21.60;36.60;;;;;;5064788;28;20048;-71
2022/01/20 10:35:17;;;;;;;6.32;0.60;;;21.60;35.90;;;;;;5082717;28;20052;-68
2022/01/20 10:38:13;;;;;;;6.82;0.80;;;21.50;36.30;;;;;;5067571;28;20036;-71
2022/01/20 10:40:50;;;;;;;8.98;0.80;;;21.60;36.60;;;;;;5084352;28;20123;-72
2022/01/20 10:43:21;;;;;;;4.22;0.82;;;21.60;36.80;;;;;;5075408;28;20044;-74
2022/01/20 10:45:47;;;;;;;3.85;0.77;;;21.60;36.80;;;;;;5068615;28;20045;-73
2022/01/20 10:48:18;;;;;;;5.53;0.50;;;21.70;36.90;;;;;;5068493;28;20037;-68
2022/01/20 10:50:44;;;;;;;2.53;0.63;;;21.70;37.00;;;;;;5071269;28;20041;-72
2022/01/20 10:53:19;;;;;;;3.92;0.68;;;21.70;37.10;;;;;;5071628;28;20090;-67
2022/01/20 10:55:45;;;;;;;5.50;0.52;;;21.60;37.10;;;;;;5070126;28;20416;-70
2022/01/20 10:58:15;;;;;;;3.95;0.70;;;21.60;37.20;;;;;;5069827;28;20048;-69
2022/01/20 11:00:46;;;;;;;4.88;1.35;;;21.40;37.40;;;;;;5072800;28;20059;-72
2022/01/20 11:03:12;;;;;;;3.88;0.43;;;21.30;37.40;;;;;;5065443;28;20114;-64
2022/01/20 11:05:39;;;;;;;4.88;1.05;;;21.20;37.60;;;;;;5068910;28;20440;-64
2022/01/20 11:08:06;;;;;;;3.45;0.80;;;21.10;38.40;;;;;;5068699;28;20076;-64
2022/01/20 11:10:31;;;;;;;3.38;0.70;;;21.00;37.90;;;;;;5067980;28;20036;-64
2022/01/20 11:12:57;;;;;;;3.40;0.50;;;20.90;38.10;;;;;;5072839;28;20036;-65
2022/01/20 11:15:25;;;;;;;4.78;0.68;;;20.80;38.30;;;;;;5069113;28;20093;-68
2022/01/20 11:17:53;;;;;;;3.92;0.98;;;20.70;38.40;;;;;;5073423;28;20065;-72
2022/01/20 11:20:21;;;;;;;3.88;0.45;;;20.50;38.60;;;;;;5073060;28;20051;-65
2022/01/20 11:22:52;;;;;;;2.72;0.57;;;20.40;38.90;;;;;;5073259;28;20048;-69
2022/01/20 11:25:21;;;;;;;2.83;0.70;;;20.40;39.00;;;;;;5070591;28;20075;-68
2022/01/20 11:27:47;;;;;;;6.68;0.68;;;20.30;39.40;;;;;;5065881;28;20113;-71
2022/01/20 11:30:24;;;;;;;5.60;0.38;;;20.30;39.60;;;;;;5059050;28;20044;-72
2022/01/20 11:32:59;;;;;;;4.72;0.75;;;20.30;39.70;;;;;;5072061;28;20054;-76
2022/01/20 11:38:20;;;;;;;4.10;0.57;;;20.30;32.50;;;;;;5056836;27;20419;-73
2022/01/20 11:40:56;;;;;;;3.58;0.40;;;20.40;34.00;;;;;;5062520;28;20061;-66
2022/01/20 11:46:20;;;;;;;4.20;1.00;;;20.40;34.40;;;;;;5094028;27;20425;-72
2022/01/20 12:00:03;;;;;;;6.60;0.75;;;21.30;35.60;;;;;;5063611;28;20461;-65
2022/01/20 12:08:10;;;;;;;3.63;0.93;;;21.40;35.50;;;;;;5107012;27;1160951;-72
2022/01/20 12:10:37;;;;;;;4.57;0.35;;;21.40;35.30;;;;;;5123778;27;20073;-73
2022/01/20 12:13:07;;;;;;;4.82;0.47;;;21.30;34.40;;;;;;5122845;27;20047;-72
2022/01/20 12:15:33;;;;;;;5.88;0.40;;;21.20;34.00;;;;;;5121493;27;20470;-73
2022/01/20 12:17:59;;;;;;;3.03;0.30;;;21.10;34.20;;;;;;5109692;27;20039;-69
2022/01/20 12:20:25;;;;;;;5.70;0.55;;;20.90;34.30;;;;;;5117981;27;20035;-71
2022/01/20 12:22:53;;;;;;;6.15;0.30;;;20.80;34.60;;;;;;5111529;27;20055;-72
2022/01/20 12:28:14;;;;;;;9.25;0.60;;;20.70;34.90;;;;;;5093777;27;20331;-69
2022/01/20 12:30:47;;;;;;;5.70;0.50;;;20.50;35.60;;;;;;5091255;28;20051;-72
2022/01/20 12:33:15;;;;;;;4.90;0.55;;;20.50;36.00;;;;;;5091184;28;21169;-68
2022/01/20 12:35:44;;;;;;;1.85;0.43;;;20.40;36.30;;;;;;5090426;28;20455;-70
2022/01/20 12:38:15;;;;;;;5.50;0.25;;;20.50;36.40;;;;;;5090116;28;20564;-72
2022/01/20 12:40:40;;;;;;;;;;;20.50;36.60;;;;;;5089423;28;20051;-68
2022/01/20 12:43:09;;;;;;;6.60;0.73;;;20.60;37.10;;;;;;5120551;27;20395;-69
2022/01/20 12:46:05;;;;;;;5.38;0.50;;;20.50;36.70;;;;;;5086530;28;20040;-72
2022/01/20 12:48:20;;;;;;;4.25;0.20;;;20.70;36.50;;;;;;5086676;28;20481;-72
2022/01/20 12:50:51;;;;;;;3.78;0.50;;;20.70;36.30;;;;;;5090356;28;20514;-72
2022/01/20 12:53:18;;;;;;;5.85;0.30;;;20.70;36.20;;;;;;5085099;28;20055;-68
2022/01/20 12:55:52;;;;;;;4.40;0.50;;;20.70;36.30;;;;;;5091208;28;20051;-72
2022/01/20 12:58:18;;;;;;;3.83;0.32;;;20.80;36.50;;;;;;5087281;28;20327;-74
2022/01/20 13:00:43;;;;;;;4.35;0.50;;;20.80;36.50;;;;;;5083518;28;20044;-73
2022/01/20 13:03:09;;;;;;;4.60;0.75;;;20.80;36.40;;;;;;5086862;28;20048;-73
2022/01/20 13:05:41;;;;;;;6.50;0.40;;;20.80;36.20;;;;;;5122696;27;20032;-74
2022/01/20 13:08:06;;;;;;;4.28;0.32;;;20.80;36.20;;;;;;5098128;28;20089;-72
2022/01/20 13:10:34;;;;;;;3.17;0.70;;;20.80;36.20;;;;;;5088765;28;20139;-71
2022/01/20 13:13:05;;;;;;;5.05;0.47;;;20.80;36.10;;;;;;5083371;28;20059;-68
2022/01/20 13:15:32;;;;;;;6.13;0.95;;;20.70;36.00;;;;;;5120596;27;20044;-70
2022/01/20 13:18:08;;;;;;;2.13;0.38;;;20.60;36.00;;;;;;5087360;28;20040;-72
2022/01/20 13:20:41;;;;;;;5.15;0.45;;;20.70;36.00;;;;;;5084387;28;20070;-71
2022/01/20 13:23:54;;;;;;;9.40;0.68;;;20.60;36.10;;;;;;5088439;28;20756;-73
2022/01/20 13:26:03;;;;;;;5.57;0.50;;;20.60;36.20;;;;;;5093370;28;20052;-70
2022/01/20 13:28:29;;;;;;;1.17;0.20;;;20.50;36.40;;;;;;5110843;28;20052;-72
2022/01/20 13:30:54;;;;;;;1.80;0.70;;;20.40;36.50;;;;;;5089433;28;20694;-72
2022/01/20 13:33:23;;;;;;;3.78;0.45;;;20.40;36.60;;;;;;5090581;28;20031;-72
2022/01/20 13:36:00;;;;;;;3.05;0.50;;;20.40;36.70;;;;;;5083469;28;20062;-73
2022/01/20 13:38:37;;;;;;;2.85;0.40;;;20.30;36.90;;;;;;5075608;28;20066;-72
2022/01/20 13:41:08;;;;;;;6.32;0.60;;;20.20;36.80;;;;;;5072473;28;20040;-75
2022/01/20 13:46:36;;;;;;;8.02;0.90;;;20.10;36.70;;;;;;5054557;28;20059;-71
2022/01/20 13:52:10;;;;;;;6.10;0.50;;;20.10;37.00;;;;;;5047713;27;20497;-71
2022/01/20 13:54:39;;;;;;;4.95;0.52;;;20.20;37.40;;;;;;5027267;28;20053;-72
2022/01/20 13:57:05;;;;;;;4.07;0.70;;;20.20;37.30;;;;;;5024272;28;20575;-74
2022/01/20 13:59:31;;;;;;;5.72;0.50;;;20.30;37.10;;;;;;5054083;28;20037;-75
2022/01/20 14:01:57;;;;;;;7.68;0.80;;;20.40;37.40;;;;;;5026531;28;20039;-75
2022/01/20 14:04:22;;;;;;;7.93;0.68;;;20.40;35.00;;;;;;5062966;28;20128;-72
2022/01/20 14:06:48;;;;;;;5.88;0.95;;;20.50;32.20;;;;;;5030523;28;20068;-70
2022/01/20 14:09:14;;;;;;;8.73;0.68;;;20.50;30.60;;;;;;5032248;28;20656;-72
2022/01/20 14:11:41;;;;;;;4.40;0.47;;;20.50;30.60;;;;;;5028979;28;20052;-71
2022/01/20 14:14:08;;;;;;;5.05;0.70;;;20.50;30.60;;;;;;5032978;28;20524;-71
2022/01/20 14:16:35;;;;;;;4.40;0.70;;;20.50;30.60;;;;;;5041273;28;20033;-72
2022/01/20 14:19:01;;;;;;;4.05;0.40;;;20.50;30.80;;;;;;5035652;28;20041;-75
2022/01/20 14:21:27;;;;;;;5.57;0.95;;;20.60;30.90;;;;;;5036469;28;20045;-71
2022/01/20 14:23:52;;;;;;;3.70;0.70;;;20.60;31.00;;;;;;5037383;28;20045;-77
2022/01/20 14:26:22;;;;;;;3.33;0.85;;;20.60;31.20;;;;;;5038567;28;20120;-71
2022/01/20 14:28:48;;;;;;;2.42;0.50;;;20.70;31.20;;;;;;5038684;28;20041;-77
2022/01/20 14:31:14;;;;;;;3.17;0.40;;;20.80;31.10;;;;;;5039539;28;20094;-78